sensor_id;sensor_type;location;lat;lon;timestamp;pressure;altitude;pressure_sealevel;temperature;humidity
46598;BME280;32318;48.858;8.252;2023-04-04T00:02:12;101147.50;;;2.33;53.46
46598;BME280;32318;48.858;8.252;2023-04-04T00:10:13;101143.50;;;2.26;53.55
46598;BME280;32318;48.858;8.252;2023-04-04T00:18:13;101137.28;;;2.27;53.42
46598;BME280;32318;48.858;8.252;2023-04-04T00:26:13;101124.66;;;2.18;53.33
46598;BME280;32318;48.858;8.252;2023-04-04T00:34:13;101117.38;;;2.07;54.23
46598;BME280;32318;48.858;8.252;2023-04-04T00:42:14;101128.06;;;2.04;53.79
46598;BME280;32318;48.858;8.252;2023-04-04T00:50:14;101125.88;;;1.96;54.55
46598;BME280;32318;48.858;8.252;2023-04-04T00:58:16;101110.09;;;1.96;54.19
46598;BME280;32318;48.858;8.252;2023-04-04T01:06:16;101117.72;;;2.01;53.84
46598;BME280;32318;48.858;8.252;2023-04-04T01:14:16;101110.75;;;1.84;54.37
46598;BME280;32318;48.858;8.252;2023-04-04T01:22:17;101109.41;;;1.77;54.67
46598;BME280;32318;48.858;8.252;2023-04-04T01:30:18;101100.47;;;1.79;54.52
46598;BME280;32318;48.858;8.252;2023-04-04T01:46:22;101106.44;;;1.67;54.73
46598;BME280;32318;48.858;8.252;2023-04-04T01:54:22;101108.66;;;1.59;55.16
46598;BME280;32318;48.858;8.252;2023-04-04T02:02:23;101104.47;;;1.54;55.47
46598;BME280;32318;48.858;8.252;2023-04-04T02:10:23;101106.84;;;1.43;55.88
46598;BME280;32318;48.858;8.252;2023-04-04T02:18:23;101095.41;;;1.28;56.61
46598;BME280;32318;48.858;8.252;2023-04-04T02:26:23;101103.53;;;1.23;57.03
46598;BME280;32318;48.858;8.252;2023-04-04T02:34:24;101088.78;;;1.21;56.88
46598;BME280;32318;48.858;8.252;2023-04-04T02:42:25;101086.44;;;1.15;57.05
46598;BME280;32318;48.858;8.252;2023-04-04T02:50:25;101087.84;;;1.04;57.34
46598;BME280;32318;48.858;8.252;2023-04-04T02:58:26;101092.19;;;1.05;57.36
46598;BME280;32318;48.858;8.252;2023-04-04T03:06:30;101082.78;;;1.01;57.79
46598;BME280;32318;48.858;8.252;2023-04-04T03:14:30;101082.25;;;0.94;57.54
46598;BME280;32318;48.858;8.252;2023-04-04T03:22:31;101089.09;;;0.81;58.05
46598;BME280;32318;48.858;8.252;2023-04-04T03:30:31;101091.72;;;0.81;57.91
46598;BME280;32318;48.858;8.252;2023-04-04T03:38:31;101087.78;;;0.72;58.63
46598;BME280;32318;48.858;8.252;2023-04-04T03:46:32;101086.88;;;0.56;59.07
46598;BME280;32318;48.858;8.252;2023-04-04T03:54:32;101095.09;;;0.50;59.53
46598;BME280;32318;48.858;8.252;2023-04-04T04:02:32;101097.47;;;0.37;60.04
46598;BME280;32318;48.858;8.252;2023-04-04T04:10:33;101103.72;;;0.17;60.67
46598;BME280;32318;48.858;8.252;2023-04-04T04:18:33;101102.50;;;0.24;60.61
46598;BME280;32318;48.858;8.252;2023-04-04T04:26:33;101100.16;;;0.00;61.14
46598;BME280;32318;48.858;8.252;2023-04-04T04:34:34;101112.31;;;0.01;61.36
46598;BME280;32318;48.858;8.252;2023-04-04T04:42:35;101116.34;;;-0.09;61.65
46598;BME280;32318;48.858;8.252;2023-04-04T04:50:35;101118.19;;;-0.11;62.09
46598;BME280;32318;48.858;8.252;2023-04-04T04:58:35;101117.75;;;-0.21;62.07
46598;BME280;32318;48.858;8.252;2023-04-04T05:06:36;101116.91;;;-0.22;62.34
46598;BME280;32318;48.858;8.252;2023-04-04T05:14:37;101129.41;;;-0.27;62.76
46598;BME280;32318;48.858;8.252;2023-04-04T05:22:43;101123.16;;;-0.24;62.71
46598;BME280;32318;48.858;8.252;2023-04-04T05:30:43;101133.22;;;-0.15;62.74
46598;BME280;32318;48.858;8.252;2023-04-04T05:38:43;101135.19;;;-0.01;62.15
46598;BME280;32318;48.858;8.252;2023-04-04T05:46:44;101147.75;;;0.29;61.77
46598;BME280;32318;48.858;8.252;2023-04-04T05:54:44;101134.31;;;0.88;59.67
46598;BME280;32318;48.858;8.252;2023-04-04T06:02:45;101143.06;;;1.22;58.60
46598;BME280;32318;48.858;8.252;2023-04-04T06:10:45;101138.53;;;1.58;57.18
46598;BME280;32318;48.858;8.252;2023-04-04T06:18:46;101135.31;;;1.84;56.18
46598;BME280;32318;48.858;8.252;2023-04-04T06:26:46;101143.78;;;1.73;56.87
46598;BME280;32318;48.858;8.252;2023-04-04T06:34:50;101147.22;;;1.60;57.02
46598;BME280;32318;48.858;8.252;2023-04-04T06:42:51;101146.44;;;1.58;57.99
46598;BME280;32318;48.858;8.252;2023-04-04T06:50:52;101137.69;;;1.89;56.67
46598;BME280;32318;48.858;8.252;2023-04-04T06:58:53;101140.66;;;2.15;55.24
46598;BME280;32318;48.858;8.252;2023-04-04T07:06:53;101140.34;;;2.35;53.81
46598;BME280;32318;48.858;8.252;2023-04-04T07:14:54;101134.00;;;2.54;53.42
46598;BME280;32318;48.858;8.252;2023-04-04T07:22:54;101131.28;;;2.56;53.75
46598;BME280;32318;48.858;8.252;2023-04-04T07:30:58;101137.47;;;2.85;52.75
46598;BME280;32318;48.858;8.252;2023-04-04T07:38:58;101136.06;;;3.08;52.00
46598;BME280;32318;48.858;8.252;2023-04-04T07:46:58;101122.22;;;3.34;51.54
46598;BME280;32318;48.858;8.252;2023-04-04T07:54:59;101125.59;;;3.50;50.34
46598;BME280;32318;48.858;8.252;2023-04-04T08:03:00;101118.03;;;3.58;49.63
46598;BME280;32318;48.858;8.252;2023-04-04T08:11:01;101120.81;;;3.84;49.75
46598;BME280;32318;48.858;8.252;2023-04-04T08:19:01;101124.75;;;4.19;48.03
46598;BME280;32318;48.858;8.252;2023-04-04T08:27:03;101115.63;;;4.10;47.70
46598;BME280;32318;48.858;8.252;2023-04-04T08:35:04;101112.19;;;4.22;47.74
46598;BME280;32318;48.858;8.252;2023-04-04T08:43:05;101123.97;;;4.44;48.32
46598;BME280;32318;48.858;8.252;2023-04-04T08:51:05;101118.06;;;4.53;47.47
46598;BME280;32318;48.858;8.252;2023-04-04T08:59:08;101115.44;;;4.79;46.66
46598;BME280;32318;48.858;8.252;2023-04-04T09:07:11;101121.69;;;4.91;45.61
46598;BME280;32318;48.858;8.252;2023-04-04T09:15:14;101110.88;;;5.20;44.45
46598;BME280;32318;48.858;8.252;2023-04-04T09:23:15;101112.06;;;5.29;43.84
46598;BME280;32318;48.858;8.252;2023-04-04T09:31:16;101117.22;;;5.43;43.53
46598;BME280;32318;48.858;8.252;2023-04-04T09:39:18;101105.13;;;5.39;42.98
46598;BME280;32318;48.858;8.252;2023-04-04T09:47:26;101105.06;;;5.65;43.18
46598;BME280;32318;48.858;8.252;2023-04-04T09:55:33;101098.44;;;5.84;42.75
46598;BME280;32318;48.858;8.252;2023-04-04T10:03:35;101105.38;;;5.97;41.96
46598;BME280;32318;48.858;8.252;2023-04-04T10:11:36;101116.91;;;6.09;41.78
46598;BME280;32318;48.858;8.252;2023-04-04T10:19:38;101109.47;;;6.15;41.35
46598;BME280;32318;48.858;8.252;2023-04-04T10:27:38;101111.59;;;6.09;41.68
46598;BME280;32318;48.858;8.252;2023-04-04T10:35:40;101104.59;;;6.33;40.77
46598;BME280;32318;48.858;8.252;2023-04-04T10:43:44;101102.34;;;6.51;40.70
46598;BME280;32318;48.858;8.252;2023-04-04T10:51:47;101101.41;;;6.52;40.67
46598;BME280;32318;48.858;8.252;2023-04-04T11:08:09;101077.28;;;6.55;39.25
46598;BME280;32318;48.858;8.252;2023-04-04T11:16:11;101071.78;;;6.81;39.55
46598;BME280;32318;48.858;8.252;2023-04-04T11:24:14;101079.28;;;6.98;39.18
46598;BME280;32318;48.858;8.252;2023-04-04T11:32:42;101078.34;;;7.11;38.24
46598;BME280;32318;48.858;8.252;2023-04-04T11:40:52;101067.34;;;7.04;39.56
46598;BME280;32318;48.858;8.252;2023-04-04T11:48:53;101057.41;;;7.40;39.20
46598;BME280;32318;48.858;8.252;2023-04-04T11:56:53;101049.00;;;7.67;36.51
46598;BME280;32318;48.858;8.252;2023-04-04T12:04:54;101043.47;;;7.59;38.41
46598;BME280;32318;48.858;8.252;2023-04-04T12:12:55;101041.28;;;7.64;38.38
46598;BME280;32318;48.858;8.252;2023-04-04T12:20:56;101032.47;;;7.64;37.97
46598;BME280;32318;48.858;8.252;2023-04-04T12:28:56;101026.38;;;7.84;39.06
46598;BME280;32318;48.858;8.252;2023-04-04T12:36:59;101032.69;;;8.05;38.14
46598;BME280;32318;48.858;8.252;2023-04-04T12:45:00;101023.09;;;8.13;37.97
46598;BME280;32318;48.858;8.252;2023-04-04T12:53:04;101012.91;;;7.97;39.17
46598;BME280;32318;48.858;8.252;2023-04-04T13:01:04;101009.78;;;8.13;38.34
46598;BME280;32318;48.858;8.252;2023-04-04T13:09:05;100995.47;;;8.26;38.16
46598;BME280;32318;48.858;8.252;2023-04-04T13:17:06;100994.03;;;8.22;38.81
46598;BME280;32318;48.858;8.252;2023-04-04T13:25:09;100993.44;;;8.39;39.53
46598;BME280;32318;48.858;8.252;2023-04-04T13:33:09;100979.88;;;8.42;37.26
46598;BME280;32318;48.858;8.252;2023-04-04T13:41:10;100981.06;;;8.50;38.16
46598;BME280;32318;48.858;8.252;2023-04-04T13:49:11;100977.59;;;8.38;39.22
46598;BME280;32318;48.858;8.252;2023-04-04T13:57:11;100955.63;;;8.45;37.93
46598;BME280;32318;48.858;8.252;2023-04-04T14:05:11;100962.34;;;8.61;38.49
46598;BME280;32318;48.858;8.252;2023-04-04T14:13:12;100962.06;;;8.64;38.55
46598;BME280;32318;48.858;8.252;2023-04-04T14:21:12;100950.75;;;8.72;36.18
46598;BME280;32318;48.858;8.252;2023-04-04T14:29:14;100954.81;;;8.76;38.23
46598;BME280;32318;48.858;8.252;2023-04-04T14:37:15;100944.59;;;8.71;36.91
46598;BME280;32318;48.858;8.252;2023-04-04T14:45:16;100952.28;;;8.65;37.98
46598;BME280;32318;48.858;8.252;2023-04-04T14:53:16;100956.47;;;8.67;37.73
46598;BME280;32318;48.858;8.252;2023-04-04T15:01:17;100953.69;;;8.69;37.44
46598;BME280;32318;48.858;8.252;2023-04-04T15:09:19;100942.84;;;8.60;37.66
46598;BME280;32318;48.858;8.252;2023-04-04T15:17:19;100954.38;;;8.71;37.45
46598;BME280;32318;48.858;8.252;2023-04-04T15:25:19;100937.34;;;8.83;36.26
46598;BME280;32318;48.858;8.252;2023-04-04T15:33:20;100932.66;;;8.66;37.27
46598;BME280;32318;48.858;8.252;2023-04-04T15:41:20;100930.16;;;8.74;36.48
46598;BME280;32318;48.858;8.252;2023-04-04T15:49:22;100913.81;;;8.47;37.46
46598;BME280;32318;48.858;8.252;2023-04-04T15:57:22;100924.34;;;8.49;36.75
46598;BME280;32318;48.858;8.252;2023-04-04T16:05:22;100904.50;;;8.42;37.67
46598;BME280;32318;48.858;8.252;2023-04-04T16:13:23;100898.31;;;8.31;37.83
46598;BME280;32318;48.858;8.252;2023-04-04T16:21:24;100894.66;;;8.32;37.43
46598;BME280;32318;48.858;8.252;2023-04-04T16:29:25;100894.19;;;8.18;38.53
46598;BME280;32318;48.858;8.252;2023-04-04T16:37:26;100892.94;;;8.22;37.93
46598;BME280;32318;48.858;8.252;2023-04-04T16:45:26;100891.13;;;8.22;38.13
46598;BME280;32318;48.858;8.252;2023-04-04T16:53:27;100891.00;;;8.24;38.51
46598;BME280;32318;48.858;8.252;2023-04-04T17:01:27;100896.88;;;7.96;39.39
46598;BME280;32318;48.858;8.252;2023-04-04T17:09:27;100888.38;;;8.03;38.67
46598;BME280;32318;48.858;8.252;2023-04-04T17:17:27;100890.38;;;7.89;38.71
46598;BME280;32318;48.858;8.252;2023-04-04T17:25:28;100884.19;;;7.79;39.63
46598;BME280;32318;48.858;8.252;2023-04-04T17:33:29;100890.72;;;7.75;39.65
46598;BME280;32318;48.858;8.252;2023-04-04T17:41:32;100887.22;;;7.53;40.33
46598;BME280;32318;48.858;8.252;2023-04-04T17:49:33;100892.53;;;7.53;39.72
46598;BME280;32318;48.858;8.252;2023-04-04T17:57:34;100880.56;;;7.26;40.96
46598;BME280;32318;48.858;8.252;2023-04-04T18:05:34;100886.88;;;7.14;41.39
46598;BME280;32318;48.858;8.252;2023-04-04T18:13:35;100891.16;;;6.94;42.27
46598;BME280;32318;48.858;8.252;2023-04-04T18:21:36;100882.25;;;6.83;42.63
46598;BME280;32318;48.858;8.252;2023-04-04T18:29:37;100886.50;;;6.74;42.88
46598;BME280;32318;48.858;8.252;2023-04-04T18:37:37;100887.34;;;6.64;43.30
46598;BME280;32318;48.858;8.252;2023-04-04T18:45:39;100901.69;;;6.61;43.80
46598;BME280;32318;48.858;8.252;2023-04-04T18:53:40;100902.44;;;6.52;44.00
46598;BME280;32318;48.858;8.252;2023-04-04T19:01:40;100910.41;;;6.40;44.27
46598;BME280;32318;48.858;8.252;2023-04-04T19:09:41;100908.22;;;6.34;44.46
46598;BME280;32318;48.858;8.252;2023-04-04T19:17:43;100920.53;;;6.24;44.25
46598;BME280;32318;48.858;8.252;2023-04-04T19:25:44;100920.50;;;6.12;44.01
46598;BME280;32318;48.858;8.252;2023-04-04T19:33:51;100916.22;;;5.99;44.43
46598;BME280;32318;48.858;8.252;2023-04-04T19:41:55;100916.81;;;5.91;44.94
46598;BME280;32318;48.858;8.252;2023-04-04T21:50:12;100914.16;;;5.20;48.46
46598;BME280;32318;48.858;8.252;2023-04-04T22:07:29;100925.78;;;4.93;49.94
46598;BME280;32318;48.858;8.252;2023-04-04T23:31:06;100892.97;;;3.68;52.45
46598;BME280;32318;48.858;8.252;2023-04-04T23:39:26;100881.47;;;3.69;52.00
